sensor_id;sensor_type;location;lat;lon;timestamp;temperature;humidity
26964;DHT22;14521;48.148;-1.656;2023-04-21T00:01:25;19.00;70.90
26964;DHT22;14521;48.148;-1.656;2023-04-21T00:04:48;19.00;71.00
26964;DHT22;14521;48.148;-1.656;2023-04-21T00:08:11;19.00;70.80
26964;DHT22;14521;48.148;-1.656;2023-04-21T00:11:33;19.00;70.80
26964;DHT22;14521;48.148;-1.656;2023-04-21T00:14:55;19.00;70.80
26964;DHT22;14521;48.148;-1.656;2023-04-21T00:18:17;19.00;71.00
26964;DHT22;14521;48.148;-1.656;2023-04-21T00:21:40;18.90;71.00
26964;DHT22;14521;48.148;-1.656;2023-04-21T00:25:02;19.00;71.00
26964;DHT22;14521;48.148;-1.656;2023-04-21T00:28:24;18.90;70.90
26964;DHT22;14521;48.148;-1.656;2023-04-21T00:31:47;18.90;71.10
26964;DHT22;14521;48.148;-1.656;2023-04-21T00:35:12;18.90;71.00
26964;DHT22;14521;48.148;-1.656;2023-04-21T00:38:34;18.90;71.00
26964;DHT22;14521;48.148;-1.656;2023-04-21T00:41:56;18.90;71.20
26964;DHT22;14521;48.148;-1.656;2023-04-21T00:45:19;19.00;71.30
26964;DHT22;14521;48.148;-1.656;2023-04-21T00:48:41;18.90;71.30
26964;DHT22;14521;48.148;-1.656;2023-04-21T00:52:04;18.90;71.30
26964;DHT22;14521;48.148;-1.656;2023-04-21T00:55:28;18.90;71.40
26964;DHT22;14521;48.148;-1.656;2023-04-21T00:58:52;18.90;71.40
26964;DHT22;14521;48.148;-1.656;2023-04-21T01:02:16;18.90;72.30
26964;DHT22;14521;48.148;-1.656;2023-04-21T01:05:38;18.90;71.50
26964;DHT22;14521;48.148;-1.656;2023-04-21T01:09:01;18.80;71.50
26964;DHT22;14521;48.148;-1.656;2023-04-21T01:12:25;18.90;71.60
26964;DHT22;14521;48.148;-1.656;2023-04-21T01:15:48;18.90;71.50
26964;DHT22;14521;48.148;-1.656;2023-04-21T01:19:10;18.90;71.50
26964;DHT22;14521;48.148;-1.656;2023-04-21T01:22:37;18.80;71.50
26964;DHT22;14521;48.148;-1.656;2023-04-21T01:25:59;18.90;71.50
26964;DHT22;14521;48.148;-1.656;2023-04-21T01:29:22;18.80;71.50
26964;DHT22;14521;48.148;-1.656;2023-04-21T01:32:44;18.80;71.50
26964;DHT22;14521;48.148;-1.656;2023-04-21T01:36:07;18.80;71.50
26964;DHT22;14521;48.148;-1.656;2023-04-21T01:39:30;18.80;72.40
26964;DHT22;14521;48.148;-1.656;2023-04-21T01:42:52;18.80;71.60
26964;DHT22;14521;48.148;-1.656;2023-04-21T01:46:18;18.80;71.60
26964;DHT22;14521;48.148;-1.656;2023-04-21T01:49:41;18.80;71.60
26964;DHT22;14521;48.148;-1.656;2023-04-21T01:53:03;18.70;71.40
26964;DHT22;14521;48.148;-1.656;2023-04-21T01:56:26;18.70;71.40
26964;DHT22;14521;48.148;-1.656;2023-04-21T01:59:48;18.70;71.40
26964;DHT22;14521;48.148;-1.656;2023-04-21T02:03:11;18.70;71.30
26964;DHT22;14521;48.148;-1.656;2023-04-21T02:06:33;18.60;71.10
26964;DHT22;14521;48.148;-1.656;2023-04-21T02:09:56;18.70;71.20
26964;DHT22;14521;48.148;-1.656;2023-04-21T02:13:18;18.60;71.20
26964;DHT22;14521;48.148;-1.656;2023-04-21T02:16:40;18.60;71.10
26964;DHT22;14521;48.148;-1.656;2023-04-21T02:20:02;18.60;71.00
26964;DHT22;14521;48.148;-1.656;2023-04-21T02:23:25;18.70;71.10
26964;DHT22;14521;48.148;-1.656;2023-04-21T02:26:48;18.60;71.20
26964;DHT22;14521;48.148;-1.656;2023-04-21T02:30:11;18.60;71.10
26964;DHT22;14521;48.148;-1.656;2023-04-21T02:33:36;18.60;71.00
26964;DHT22;14521;48.148;-1.656;2023-04-21T02:36:58;18.60;71.10
26964;DHT22;14521;48.148;-1.656;2023-04-21T02:40:20;18.60;71.10
26964;DHT22;14521;48.148;-1.656;2023-04-21T02:43:43;18.50;71.10
26964;DHT22;14521;48.148;-1.656;2023-04-21T02:47:05;18.50;71.10
26964;DHT22;14521;48.148;-1.656;2023-04-21T02:50:27;18.50;71.10
26964;DHT22;14521;48.148;-1.656;2023-04-21T02:53:50;18.50;71.10
26964;DHT22;14521;48.148;-1.656;2023-04-21T02:57:12;18.50;71.60
26964;DHT22;14521;48.148;-1.656;2023-04-21T03:00:34;18.50;71.80
26964;DHT22;14521;48.148;-1.656;2023-04-21T03:03:57;18.60;72.10
26964;DHT22;14521;48.148;-1.656;2023-04-21T03:07:19;18.70;71.80
26964;DHT22;14521;48.148;-1.656;2023-04-21T03:10:41;18.80;72.40
26964;DHT22;14521;48.148;-1.656;2023-04-21T03:14:04;18.90;72.50
26964;DHT22;14521;48.148;-1.656;2023-04-21T03:17:27;19.00;72.80
26964;DHT22;14521;48.148;-1.656;2023-04-21T03:20:59;19.00;72.70
26964;DHT22;14521;48.148;-1.656;2023-04-21T03:24:21;19.10;72.70
26964;DHT22;14521;48.148;-1.656;2023-04-21T03:27:44;19.10;72.60
26964;DHT22;14521;48.148;-1.656;2023-04-21T03:31:06;19.10;72.60
26964;DHT22;14521;48.148;-1.656;2023-04-21T03:34:28;19.10;72.50
26964;DHT22;14521;48.148;-1.656;2023-04-21T03:37:53;19.10;72.50
26964;DHT22;14521;48.148;-1.656;2023-04-21T03:41:15;19.20;72.60
26964;DHT22;14521;48.148;-1.656;2023-04-21T03:44:37;19.20;72.60
26964;DHT22;14521;48.148;-1.656;2023-04-21T03:47:59;19.10;72.50
26964;DHT22;14521;48.148;-1.656;2023-04-21T03:51:22;19.10;72.60
26964;DHT22;14521;48.148;-1.656;2023-04-21T03:54:44;19.10;72.60
26964;DHT22;14521;48.148;-1.656;2023-04-21T03:58:06;19.20;72.60
26964;DHT22;14521;48.148;-1.656;2023-04-21T04:01:29;19.20;72.60
26964;DHT22;14521;48.148;-1.656;2023-04-21T04:04:51;19.20;72.60
26964;DHT22;14521;48.148;-1.656;2023-04-21T04:08:13;19.20;72.60
26964;DHT22;14521;48.148;-1.656;2023-04-21T04:11:36;19.20;72.60
26964;DHT22;14521;48.148;-1.656;2023-04-21T04:14:59;19.20;72.60
26964;DHT22;14521;48.148;-1.656;2023-04-21T04:18:22;19.20;72.60
26964;DHT22;14521;48.148;-1.656;2023-04-21T04:21:44;19.20;72.60
26964;DHT22;14521;48.148;-1.656;2023-04-21T04:25:09;19.20;72.60
26964;DHT22;14521;48.148;-1.656;2023-04-21T04:28:34;19.20;72.60
26964;DHT22;14521;48.148;-1.656;2023-04-21T04:31:56;19.20;72.60
26964;DHT22;14521;48.148;-1.656;2023-04-21T04:35:19;19.20;72.60
26964;DHT22;14521;48.148;-1.656;2023-04-21T04:38:42;19.20;72.50
26964;DHT22;14521;48.148;-1.656;2023-04-21T04:42:07;19.10;72.40
26964;DHT22;14521;48.148;-1.656;2023-04-21T04:45:32;19.20;72.60
26964;DHT22;14521;48.148;-1.656;2023-04-21T04:48:55;19.20;72.50
26964;DHT22;14521;48.148;-1.656;2023-04-21T04:52:17;19.20;72.60
26964;DHT22;14521;48.148;-1.656;2023-04-21T04:55:39;19.20;72.50
26964;DHT22;14521;48.148;-1.656;2023-04-21T04:59:01;19.20;72.50
26964;DHT22;14521;48.148;-1.656;2023-04-21T05:02:23;19.10;72.50
26964;DHT22;14521;48.148;-1.656;2023-04-21T05:05:46;19.10;72.40
26964;DHT22;14521;48.148;-1.656;2023-04-21T05:09:09;19.20;72.60
26964;DHT22;14521;48.148;-1.656;2023-04-21T05:12:31;19.20;72.60
26964;DHT22;14521;48.148;-1.656;2023-04-21T05:15:58;19.10;72.50
26964;DHT22;14521;48.148;-1.656;2023-04-21T05:19:20;19.10;72.50
26964;DHT22;14521;48.148;-1.656;2023-04-21T05:22:42;19.10;72.40
26964;DHT22;14521;48.148;-1.656;2023-04-21T05:26:05;19.10;72.40
26964;DHT22;14521;48.148;-1.656;2023-04-21T05:29:27;19.10;72.40
26964;DHT22;14521;48.148;-1.656;2023-04-21T05:32:49;19.10;72.40
26964;DHT22;14521;48.148;-1.656;2023-04-21T05:36:12;19.10;72.40
26964;DHT22;14521;48.148;-1.656;2023-04-21T05:39:34;19.10;72.60
26964;DHT22;14521;48.148;-1.656;2023-04-21T05:42:56;19.20;73.20
26964;DHT22;14521;48.148;-1.656;2023-04-21T05:46:18;19.20;73.20
26964;DHT22;14521;48.148;-1.656;2023-04-21T05:49:40;19.20;73.10
26964;DHT22;14521;48.148;-1.656;2023-04-21T05:53:05;19.30;73.30
26964;DHT22;14521;48.148;-1.656;2023-04-21T05:56:27;19.40;73.80
26964;DHT22;14521;48.148;-1.656;2023-04-21T05:59:49;19.40;74.10
26964;DHT22;14521;48.148;-1.656;2023-04-21T06:03:12;19.50;74.10
26964;DHT22;14521;48.148;-1.656;2023-04-21T06:06:34;19.50;74.30
26964;DHT22;14521;48.148;-1.656;2023-04-21T06:09:56;19.60;74.30
26964;DHT22;14521;48.148;-1.656;2023-04-21T06:13:19;19.70;74.60
26964;DHT22;14521;48.148;-1.656;2023-04-21T06:16:41;19.70;74.40
26964;DHT22;14521;48.148;-1.656;2023-04-21T06:20:04;19.70;74.60
26964;DHT22;14521;48.148;-1.656;2023-04-21T06:23:26;19.80;74.60
26964;DHT22;14521;48.148;-1.656;2023-04-21T06:26:49;19.90;74.80
26964;DHT22;14521;48.148;-1.656;2023-04-21T06:30:12;19.90;75.20
26964;DHT22;14521;48.148;-1.656;2023-04-21T06:33:34;20.00;74.70
26964;DHT22;14521;48.148;-1.656;2023-04-21T06:36:56;20.10;74.20
26964;DHT22;14521;48.148;-1.656;2023-04-21T06:40:19;19.90;72.30
26964;DHT22;14521;48.148;-1.656;2023-04-21T06:43:41;20.00;75.20
26964;DHT22;14521;48.148;-1.656;2023-04-21T06:47:03;20.00;74.70
26964;DHT22;14521;48.148;-1.656;2023-04-21T06:50:26;20.00;73.90
26964;DHT22;14521;48.148;-1.656;2023-04-21T06:53:48;19.90;75.00
26964;DHT22;14521;48.148;-1.656;2023-04-21T06:57:11;19.90;74.30
26964;DHT22;14521;48.148;-1.656;2023-04-21T07:00:33;19.80;74.50
26964;DHT22;14521;48.148;-1.656;2023-04-21T07:03:55;19.90;74.10
26964;DHT22;14521;48.148;-1.656;2023-04-21T07:07:18;19.90;75.10
26964;DHT22;14521;48.148;-1.656;2023-04-21T07:10:40;20.00;74.80
26964;DHT22;14521;48.148;-1.656;2023-04-21T07:14:02;20.10;74.80
26964;DHT22;14521;48.148;-1.656;2023-04-21T07:17:25;20.10;74.50
26964;DHT22;14521;48.148;-1.656;2023-04-21T07:20:47;20.10;74.20
26964;DHT22;14521;48.148;-1.656;2023-04-21T07:24:09;20.10;74.50
26964;DHT22;14521;48.148;-1.656;2023-04-21T07:27:32;20.10;75.00
26964;DHT22;14521;48.148;-1.656;2023-04-21T07:30:55;20.10;75.00
26964;DHT22;14521;48.148;-1.656;2023-04-21T07:34:18;20.10;75.10
26964;DHT22;14521;48.148;-1.656;2023-04-21T07:37:40;20.10;78.00
26964;DHT22;14521;48.148;-1.656;2023-04-21T07:41:03;20.10;77.30
26964;DHT22;14521;48.148;-1.656;2023-04-21T07:44:25;20.10;76.80
26964;DHT22;14521;48.148;-1.656;2023-04-21T07:47:47;20.10;77.10
26964;DHT22;14521;48.148;-1.656;2023-04-21T07:51:09;20.20;77.10
26964;DHT22;14521;48.148;-1.656;2023-04-21T07:54:32;20.20;76.10
26964;DHT22;14521;48.148;-1.656;2023-04-21T07:57:54;20.10;76.00
26964;DHT22;14521;48.148;-1.656;2023-04-21T08:01:17;20.10;75.70
26964;DHT22;14521;48.148;-1.656;2023-04-21T08:04:39;20.10;75.60
26964;DHT22;14521;48.148;-1.656;2023-04-21T08:08:01;20.10;75.40
26964;DHT22;14521;48.148;-1.656;2023-04-21T08:11:24;20.20;75.30
26964;DHT22;14521;48.148;-1.656;2023-04-21T08:14:46;20.20;75.20
26964;DHT22;14521;48.148;-1.656;2023-04-21T08:18:09;20.20;75.10
26964;DHT22;14521;48.148;-1.656;2023-04-21T08:21:32;20.10;75.20
26964;DHT22;14521;48.148;-1.656;2023-04-21T08:24:55;20.20;75.30
26964;DHT22;14521;48.148;-1.656;2023-04-21T08:28:17;20.20;75.70
26964;DHT22;14521;48.148;-1.656;2023-04-21T08:31:39;20.30;75.40
26964;DHT22;14521;48.148;-1.656;2023-04-21T08:35:02;20.30;75.70
26964;DHT22;14521;48.148;-1.656;2023-04-21T08:38:24;20.30;74.90
26964;DHT22;14521;48.148;-1.656;2023-04-21T08:41:47;20.20;75.00
26964;DHT22;14521;48.148;-1.656;2023-04-21T08:45:10;20.20;75.10
26964;DHT22;14521;48.148;-1.656;2023-04-21T08:48:37;20.20;74.90
26964;DHT22;14521;48.148;-1.656;2023-04-21T08:51:59;20.20;75.10
26964;DHT22;14521;48.148;-1.656;2023-04-21T08:55:27;20.20;75.00
26964;DHT22;14521;48.148;-1.656;2023-04-21T08:58:50;20.30;74.70
26964;DHT22;14521;48.148;-1.656;2023-04-21T09:05:39;20.30;74.50
26964;DHT22;14521;48.148;-1.656;2023-04-21T09:09:04;20.30;74.30
26964;DHT22;14521;48.148;-1.656;2023-04-21T09:12:27;20.30;75.20
26964;DHT22;14521;48.148;-1.656;2023-04-21T09:15:50;20.40;74.10
26964;DHT22;14521;48.148;-1.656;2023-04-21T09:19:15;20.40;73.90
26964;DHT22;14521;48.148;-1.656;2023-04-21T09:22:38;20.30;74.10
26964;DHT22;14521;48.148;-1.656;2023-04-21T09:26:02;20.40;73.70
26964;DHT22;14521;48.148;-1.656;2023-04-21T09:29:25;20.30;73.60
26964;DHT22;14521;48.148;-1.656;2023-04-21T09:32:48;20.30;73.80
26964;DHT22;14521;48.148;-1.656;2023-04-21T09:36:20;20.30;74.50
26964;DHT22;14521;48.148;-1.656;2023-04-21T09:39:46;20.40;74.50
26964;DHT22;14521;48.148;-1.656;2023-04-21T09:43:25;20.40;73.40
26964;DHT22;14521;48.148;-1.656;2023-04-21T09:47:01;20.40;73.50
26964;DHT22;14521;48.148;-1.656;2023-04-21T09:50:25;20.40;73.30
26964;DHT22;14521;48.148;-1.656;2023-04-21T09:54:18;20.40;73.20
26964;DHT22;14521;48.148;-1.656;2023-04-21T09:57:46;20.40;73.30
26964;DHT22;14521;48.148;-1.656;2023-04-21T10:01:12;20.30;73.30
26964;DHT22;14521;48.148;-1.656;2023-04-21T10:04:36;20.40;73.50
26964;DHT22;14521;48.148;-1.656;2023-04-21T10:08:00;20.30;73.50
26964;DHT22;14521;48.148;-1.656;2023-04-21T10:11:22;20.30;73.50
26964;DHT22;14521;48.148;-1.656;2023-04-21T10:14:49;20.40;73.50
26964;DHT22;14521;48.148;-1.656;2023-04-21T10:21:40;20.40;73.50
26964;DHT22;14521;48.148;-1.656;2023-04-21T10:25:05;20.40;73.30
26964;DHT22;14521;48.148;-1.656;2023-04-21T10:32:05;20.40;73.20
26964;DHT22;14521;48.148;-1.656;2023-04-21T10:35:57;20.40;73.30
26964;DHT22;14521;48.148;-1.656;2023-04-21T10:39:27;20.30;73.00
26964;DHT22;14521;48.148;-1.656;2023-04-21T10:42:50;20.40;73.80
26964;DHT22;14521;48.148;-1.656;2023-04-21T10:46:35;20.40;73.20
26964;DHT22;14521;48.148;-1.656;2023-04-21T10:49:58;20.40;73.20
26964;DHT22;14521;48.148;-1.656;2023-04-21T10:53:24;20.40;73.80
26964;DHT22;14521;48.148;-1.656;2023-04-21T10:56:48;20.40;73.00
26964;DHT22;14521;48.148;-1.656;2023-04-21T11:00:21;20.50;75.00
26964;DHT22;14521;48.148;-1.656;2023-04-21T11:03:44;20.50;74.00
26964;DHT22;14521;48.148;-1.656;2023-04-21T11:07:12;20.50;73.70
26964;DHT22;14521;48.148;-1.656;2023-04-21T11:10:54;20.50;73.90
26964;DHT22;14521;48.148;-1.656;2023-04-21T11:14:16;20.40;73.50
26964;DHT22;14521;48.148;-1.656;2023-04-21T11:17:39;20.40;73.50
26964;DHT22;14521;48.148;-1.656;2023-04-21T11:24:31;20.40;73.50
26964;DHT22;14521;48.148;-1.656;2023-04-21T11:27:54;20.40;73.10
26964;DHT22;14521;48.148;-1.656;2023-04-21T11:31:17;20.40;73.30
26964;DHT22;14521;48.148;-1.656;2023-04-21T11:34:40;20.40;72.90
26964;DHT22;14521;48.148;-1.656;2023-04-21T11:38:05;20.40;72.80
26964;DHT22;14521;48.148;-1.656;2023-04-21T11:41:28;20.40;73.70
26964;DHT22;14521;48.148;-1.656;2023-04-21T11:44:53;20.40;73.00
26964;DHT22;14521;48.148;-1.656;2023-04-21T11:48:17;20.40;72.80
26964;DHT22;14521;48.148;-1.656;2023-04-21T11:51:42;20.40;72.50
26964;DHT22;14521;48.148;-1.656;2023-04-21T11:55:15;20.40;70.50
26964;DHT22;14521;48.148;-1.656;2023-04-21T11:58:39;20.30;69.30
26964;DHT22;14521;48.148;-1.656;2023-04-21T12:02:01;20.30;71.00
26964;DHT22;14521;48.148;-1.656;2023-04-21T12:05:24;20.40;71.70
26964;DHT22;14521;48.148;-1.656;2023-04-21T12:08:47;20.40;71.80
26964;DHT22;14521;48.148;-1.656;2023-04-21T12:12:10;20.40;72.10
26964;DHT22;14521;48.148;-1.656;2023-04-21T12:15:32;20.40;72.30
26964;DHT22;14521;48.148;-1.656;2023-04-21T12:18:55;20.40;72.50
26964;DHT22;14521;48.148;-1.656;2023-04-21T12:22:18;20.50;72.40
26964;DHT22;14521;48.148;-1.656;2023-04-21T12:25:41;20.50;72.40
26964;DHT22;14521;48.148;-1.656;2023-04-21T12:29:03;20.40;72.60
26964;DHT22;14521;48.148;-1.656;2023-04-21T12:32:25;20.40;72.50
26964;DHT22;14521;48.148;-1.656;2023-04-21T12:35:48;20.50;72.40
26964;DHT22;14521;48.148;-1.656;2023-04-21T12:39:10;20.50;72.00
26964;DHT22;14521;48.148;-1.656;2023-04-21T12:42:34;20.50;71.60
26964;DHT22;14521;48.148;-1.656;2023-04-21T12:45:59;20.50;71.70
26964;DHT22;14521;48.148;-1.656;2023-04-21T12:49:21;20.50;71.70
26964;DHT22;14521;48.148;-1.656;2023-04-21T12:52:44;20.50;71.90
26964;DHT22;14521;48.148;-1.656;2023-04-21T12:56:06;20.50;71.70
26964;DHT22;14521;48.148;-1.656;2023-04-21T12:59:28;20.50;71.80
26964;DHT22;14521;48.148;-1.656;2023-04-21T13:02:51;20.50;71.70
26964;DHT22;14521;48.148;-1.656;2023-04-21T13:06:14;20.40;71.70
26964;DHT22;14521;48.148;-1.656;2023-04-21T13:09:36;20.50;71.60
26964;DHT22;14521;48.148;-1.656;2023-04-21T13:12:59;20.50;71.40
26964;DHT22;14521;48.148;-1.656;2023-04-21T13:16:21;20.50;71.40
26964;DHT22;14521;48.148;-1.656;2023-04-21T13:19:44;20.40;67.70
26964;DHT22;14521;48.148;-1.656;2023-04-21T13:23:06;20.40;70.60
26964;DHT22;14521;48.148;-1.656;2023-04-21T13:26:31;20.50;71.90
26964;DHT22;14521;48.148;-1.656;2023-04-21T13:29:56;20.50;71.90
26964;DHT22;14521;48.148;-1.656;2023-04-21T13:33:19;20.40;72.00
26964;DHT22;14521;48.148;-1.656;2023-04-21T13:36:41;20.50;71.90
26964;DHT22;14521;48.148;-1.656;2023-04-21T13:40:07;20.40;71.90
26964;DHT22;14521;48.148;-1.656;2023-04-21T13:43:30;20.50;71.90
26964;DHT22;14521;48.148;-1.656;2023-04-21T13:46:53;20.50;71.60
26964;DHT22;14521;48.148;-1.656;2023-04-21T13:50:15;20.50;71.60
26964;DHT22;14521;48.148;-1.656;2023-04-21T13:53:37;20.50;71.90
26964;DHT22;14521;48.148;-1.656;2023-04-21T13:57:00;20.50;72.10
26964;DHT22;14521;48.148;-1.656;2023-04-21T14:00:23;20.50;71.90
26964;DHT22;14521;48.148;-1.656;2023-04-21T14:03:45;20.50;71.20
26964;DHT22;14521;48.148;-1.656;2023-04-21T14:07:07;20.50;71.30
26964;DHT22;14521;48.148;-1.656;2023-04-21T14:10:30;20.50;71.20
26964;DHT22;14521;48.148;-1.656;2023-04-21T14:13:52;20.50;71.20
26964;DHT22;14521;48.148;-1.656;2023-04-21T14:17:30;20.50;71.30
26964;DHT22;14521;48.148;-1.656;2023-04-21T14:20:53;20.50;71.20
26964;DHT22;14521;48.148;-1.656;2023-04-21T14:24:15;20.50;71.30
26964;DHT22;14521;48.148;-1.656;2023-04-21T14:27:37;20.50;71.30
26964;DHT22;14521;48.148;-1.656;2023-04-21T14:31:00;20.50;71.30
26964;DHT22;14521;48.148;-1.656;2023-04-21T14:34:25;20.50;71.20
26964;DHT22;14521;48.148;-1.656;2023-04-21T14:37:48;20.50;71.20
26964;DHT22;14521;48.148;-1.656;2023-04-21T14:41:11;20.60;71.80
26964;DHT22;14521;48.148;-1.656;2023-04-21T14:44:33;20.60;71.90
26964;DHT22;14521;48.148;-1.656;2023-04-21T14:47:57;20.60;71.60
26964;DHT22;14521;48.148;-1.656;2023-04-21T14:51:19;20.60;71.40
26964;DHT22;14521;48.148;-1.656;2023-04-21T14:54:42;20.60;71.90
26964;DHT22;14521;48.148;-1.656;2023-04-21T14:58:05;20.60;71.60
26964;DHT22;14521;48.148;-1.656;2023-04-21T15:01:27;20.50;71.40
26964;DHT22;14521;48.148;-1.656;2023-04-21T15:04:49;20.50;71.30
26964;DHT22;14521;48.148;-1.656;2023-04-21T15:08:12;20.60;71.80
26964;DHT22;14521;48.148;-1.656;2023-04-21T15:11:39;20.60;71.70
26964;DHT22;14521;48.148;-1.656;2023-04-21T15:15:01;20.60;71.50
26964;DHT22;14521;48.148;-1.656;2023-04-21T15:18:23;20.60;71.40
26964;DHT22;14521;48.148;-1.656;2023-04-21T15:21:46;20.60;71.10
26964;DHT22;14521;48.148;-1.656;2023-04-21T15:25:08;20.60;71.40
26964;DHT22;14521;48.148;-1.656;2023-04-21T15:28:30;20.60;71.40
26964;DHT22;14521;48.148;-1.656;2023-04-21T15:31:54;20.60;71.40
26964;DHT22;14521;48.148;-1.656;2023-04-21T15:35:17;20.60;71.60
26964;DHT22;14521;48.148;-1.656;2023-04-21T15:38:39;20.60;71.60
26964;DHT22;14521;48.148;-1.656;2023-04-21T15:42:02;20.60;71.60
26964;DHT22;14521;48.148;-1.656;2023-04-21T15:45:25;20.60;71.70
26964;DHT22;14521;48.148;-1.656;2023-04-21T15:48:47;20.60;71.80
26964;DHT22;14521;48.148;-1.656;2023-04-21T15:52:10;20.60;72.00
26964;DHT22;14521;48.148;-1.656;2023-04-21T15:55:32;20.60;72.10
26964;DHT22;14521;48.148;-1.656;2023-04-21T15:58:55;20.60;72.10
26964;DHT22;14521;48.148;-1.656;2023-04-21T16:02:18;20.60;71.90
26964;DHT22;14521;48.148;-1.656;2023-04-21T16:05:41;20.60;71.80
26964;DHT22;14521;48.148;-1.656;2023-04-21T16:09:04;20.60;71.70
26964;DHT22;14521;48.148;-1.656;2023-04-21T16:12:26;20.60;72.00
26964;DHT22;14521;48.148;-1.656;2023-04-21T16:15:49;20.60;72.00
26964;DHT22;14521;48.148;-1.656;2023-04-21T16:19:11;20.60;72.20
26964;DHT22;14521;48.148;-1.656;2023-04-21T16:22:34;20.60;72.90
26964;DHT22;14521;48.148;-1.656;2023-04-21T16:25:57;20.60;72.50
26964;DHT22;14521;48.148;-1.656;2023-04-21T16:29:19;20.60;72.50
26964;DHT22;14521;48.148;-1.656;2023-04-21T16:32:41;20.60;72.40
26964;DHT22;14521;48.148;-1.656;2023-04-21T16:36:04;20.60;72.60
26964;DHT22;14521;48.148;-1.656;2023-04-21T16:39:26;20.60;72.80
26964;DHT22;14521;48.148;-1.656;2023-04-21T16:42:49;20.60;72.40
26964;DHT22;14521;48.148;-1.656;2023-04-21T16:46:11;20.60;71.90
26964;DHT22;14521;48.148;-1.656;2023-04-21T16:49:33;20.70;72.60
26964;DHT22;14521;48.148;-1.656;2023-04-21T16:52:56;20.70;72.20
26964;DHT22;14521;48.148;-1.656;2023-04-21T16:56:18;20.70;72.60
26964;DHT22;14521;48.148;-1.656;2023-04-21T16:59:41;20.70;72.10
26964;DHT22;14521;48.148;-1.656;2023-04-21T17:03:03;20.80;71.40
26964;DHT22;14521;48.148;-1.656;2023-04-21T17:06:26;20.80;71.60
26964;DHT22;14521;48.148;-1.656;2023-04-21T17:09:48;20.90;71.30
26964;DHT22;14521;48.148;-1.656;2023-04-21T17:13:12;20.90;70.30
26964;DHT22;14521;48.148;-1.656;2023-04-21T17:16:34;20.90;71.00
26964;DHT22;14521;48.148;-1.656;2023-04-21T17:19:57;20.80;71.50
26964;DHT22;14521;48.148;-1.656;2023-04-21T17:22:59;20.80;71.30
26964;DHT22;14521;48.148;-1.656;2023-04-21T17:26:01;20.80;71.90
26964;DHT22;14521;48.148;-1.656;2023-04-21T17:29:25;20.80;72.10
26964;DHT22;14521;48.148;-1.656;2023-04-21T17:32:47;20.80;72.20
26964;DHT22;14521;48.148;-1.656;2023-04-21T17:36:16;20.80;71.50
26964;DHT22;14521;48.148;-1.656;2023-04-21T17:39:38;20.80;71.20
26964;DHT22;14521;48.148;-1.656;2023-04-21T17:43:00;20.80;70.70
26964;DHT22;14521;48.148;-1.656;2023-04-21T17:46:23;20.80;72.00
26964;DHT22;14521;48.148;-1.656;2023-04-21T17:49:46;20.80;72.10
26964;DHT22;14521;48.148;-1.656;2023-04-21T17:53:09;20.80;72.00
26964;DHT22;14521;48.148;-1.656;2023-04-21T17:56:31;20.90;72.60
26964;DHT22;14521;48.148;-1.656;2023-04-21T17:59:54;20.90;73.30
26964;DHT22;14521;48.148;-1.656;2023-04-21T18:03:16;20.90;73.50
26964;DHT22;14521;48.148;-1.656;2023-04-21T18:06:39;20.70;73.20
26964;DHT22;14521;48.148;-1.656;2023-04-21T18:10:01;20.80;73.10
26964;DHT22;14521;48.148;-1.656;2023-04-21T18:13:23;20.80;73.70
26964;DHT22;14521;48.148;-1.656;2023-04-21T18:16:46;20.80;73.40
26964;DHT22;14521;48.148;-1.656;2023-04-21T18:20:08;20.80;75.00
26964;DHT22;14521;48.148;-1.656;2023-04-21T18:23:33;20.70;72.40
26964;DHT22;14521;48.148;-1.656;2023-04-21T18:26:55;20.50;71.70
26964;DHT22;14521;48.148;-1.656;2023-04-21T18:30:18;20.50;72.80
26964;DHT22;14521;48.148;-1.656;2023-04-21T18:33:40;20.50;73.60
26964;DHT22;14521;48.148;-1.656;2023-04-21T18:37:02;20.60;73.00
26964;DHT22;14521;48.148;-1.656;2023-04-21T18:40:25;20.60;73.20
26964;DHT22;14521;48.148;-1.656;2023-04-21T18:43:47;20.70;75.60
26964;DHT22;14521;48.148;-1.656;2023-04-21T18:47:09;20.80;76.70
26964;DHT22;14521;48.148;-1.656;2023-04-21T18:50:33;20.80;75.70
26964;DHT22;14521;48.148;-1.656;2023-04-21T18:54:00;20.90;76.10
26964;DHT22;14521;48.148;-1.656;2023-04-21T18:57:22;20.90;74.40
26964;DHT22;14521;48.148;-1.656;2023-04-21T19:00:45;20.80;75.50
26964;DHT22;14521;48.148;-1.656;2023-04-21T19:04:07;20.80;73.90
26964;DHT22;14521;48.148;-1.656;2023-04-21T19:07:32;20.80;74.70
26964;DHT22;14521;48.148;-1.656;2023-04-21T19:10:55;20.80;74.80
26964;DHT22;14521;48.148;-1.656;2023-04-21T19:14:17;20.90;75.10
26964;DHT22;14521;48.148;-1.656;2023-04-21T19:17:39;20.80;75.20
26964;DHT22;14521;48.148;-1.656;2023-04-21T19:21:02;20.50;74.40
26964;DHT22;14521;48.148;-1.656;2023-04-21T19:24:25;20.40;75.50
26964;DHT22;14521;48.148;-1.656;2023-04-21T19:27:47;20.50;72.90
26964;DHT22;14521;48.148;-1.656;2023-04-21T19:31:10;20.50;72.90
26964;DHT22;14521;48.148;-1.656;2023-04-21T19:34:32;20.40;72.50
26964;DHT22;14521;48.148;-1.656;2023-04-21T19:37:55;20.50;72.10
26964;DHT22;14521;48.148;-1.656;2023-04-21T19:41:17;20.50;73.40
26964;DHT22;14521;48.148;-1.656;2023-04-21T19:44:39;20.50;71.60
26964;DHT22;14521;48.148;-1.656;2023-04-21T19:48:02;20.40;71.20
26964;DHT22;14521;48.148;-1.656;2023-04-21T19:51:25;20.30;71.00
26964;DHT22;14521;48.148;-1.656;2023-04-21T19:54:48;20.30;71.20
26964;DHT22;14521;48.148;-1.656;2023-04-21T19:58:11;20.30;71.90
26964;DHT22;14521;48.148;-1.656;2023-04-21T20:01:35;20.30;72.70
26964;DHT22;14521;48.148;-1.656;2023-04-21T20:04:58;20.40;74.10
26964;DHT22;14521;48.148;-1.656;2023-04-21T20:08:20;20.50;73.60
26964;DHT22;14521;48.148;-1.656;2023-04-21T20:11:43;20.60;74.10
26964;DHT22;14521;48.148;-1.656;2023-04-21T20:15:06;20.50;71.10
26964;DHT22;14521;48.148;-1.656;2023-04-21T20:18:29;20.50;75.00
26964;DHT22;14521;48.148;-1.656;2023-04-21T20:21:52;20.50;73.70
26964;DHT22;14521;48.148;-1.656;2023-04-21T20:25:15;20.50;74.00
26964;DHT22;14521;48.148;-1.656;2023-04-21T20:28:37;20.50;74.30
26964;DHT22;14521;48.148;-1.656;2023-04-21T20:32:02;20.50;74.10
26964;DHT22;14521;48.148;-1.656;2023-04-21T20:35:25;20.50;73.90
26964;DHT22;14521;48.148;-1.656;2023-04-21T20:38:47;20.50;73.90
26964;DHT22;14521;48.148;-1.656;2023-04-21T20:42:11;20.50;73.70
26964;DHT22;14521;48.148;-1.656;2023-04-21T20:45:35;20.50;73.70
26964;DHT22;14521;48.148;-1.656;2023-04-21T20:48:57;20.50;73.60
26964;DHT22;14521;48.148;-1.656;2023-04-21T20:52:19;20.50;73.60
26964;DHT22;14521;48.148;-1.656;2023-04-21T20:55:42;20.50;73.40
26964;DHT22;14521;48.148;-1.656;2023-04-21T20:59:04;20.40;73.40
26964;DHT22;14521;48.148;-1.656;2023-04-21T21:02:27;20.40;73.30
26964;DHT22;14521;48.148;-1.656;2023-04-21T21:05:49;20.40;73.30
26964;DHT22;14521;48.148;-1.656;2023-04-21T21:09:12;20.40;73.30
26964;DHT22;14521;48.148;-1.656;2023-04-21T21:12:34;20.40;73.30
26964;DHT22;14521;48.148;-1.656;2023-04-21T21:15:56;20.40;73.30